sensor_id;sensor_type;location;lat;lon;timestamp;P1;durP1;ratioP1;P2;durP2;ratioP2
23747;SDS011;12054;53.662;10.126;2023-08-30T00:02:19;2.40;;;1.80;;
23747;SDS011;12054;53.662;10.126;2023-08-30T00:04:45;2.47;;;1.92;;
23747;SDS011;12054;53.662;10.126;2023-08-30T00:07:10;2.63;;;2.00;;
23747;SDS011;12054;53.662;10.126;2023-08-30T00:09:36;3.17;;;1.50;;
23747;SDS011;12054;53.662;10.126;2023-08-30T00:12:02;1.50;;;1.40;;
23747;SDS011;12054;53.662;10.126;2023-08-30T00:14:28;2.30;;;1.73;;
23747;SDS011;12054;53.662;10.126;2023-08-30T00:16:53;1.65;;;1.55;;
23747;SDS011;12054;53.662;10.126;2023-08-30T00:19:19;1.70;;;1.60;;
23747;SDS011;12054;53.662;10.126;2023-08-30T00:21:45;1.70;;;1.60;;
23747;SDS011;12054;53.662;10.126;2023-08-30T00:24:11;2.05;;;1.88;;
23747;SDS011;12054;53.662;10.126;2023-08-30T00:26:36;2.13;;;1.90;;
23747;SDS011;12054;53.662;10.126;2023-08-30T00:29:02;2.10;;;1.90;;
23747;SDS011;12054;53.662;10.126;2023-08-30T00:31:27;2.33;;;2.13;;
23747;SDS011;12054;53.662;10.126;2023-08-30T00:33:53;1.80;;;1.70;;
23747;SDS011;12054;53.662;10.126;2023-08-30T00:36:18;2.78;;;2.40;;
23747;SDS011;12054;53.662;10.126;2023-08-30T00:38:44;2.65;;;2.33;;
23747;SDS011;12054;53.662;10.126;2023-08-30T00:41:09;2.75;;;2.42;;
23747;SDS011;12054;53.662;10.126;2023-08-30T00:43:35;2.85;;;2.55;;
23747;SDS011;12054;53.662;10.126;2023-08-30T00:46:00;2.72;;;2.25;;
23747;SDS011;12054;53.662;10.126;2023-08-30T00:48:27;2.55;;;2.35;;
23747;SDS011;12054;53.662;10.126;2023-08-30T00:50:53;3.45;;;2.03;;
23747;SDS011;12054;53.662;10.126;2023-08-30T00:53:18;4.10;;;2.05;;
23747;SDS011;12054;53.662;10.126;2023-08-30T00:55:44;1.95;;;1.70;;
23747;SDS011;12054;53.662;10.126;2023-08-30T00:58:10;2.35;;;1.92;;
23747;SDS011;12054;53.662;10.126;2023-08-30T01:00:36;3.72;;;3.05;;
23747;SDS011;12054;53.662;10.126;2023-08-30T01:03:02;2.80;;;2.15;;
23747;SDS011;12054;53.662;10.126;2023-08-30T01:05:29;4.63;;;2.20;;
23747;SDS011;12054;53.662;10.126;2023-08-30T01:07:55;3.80;;;2.40;;
23747;SDS011;12054;53.662;10.126;2023-08-30T01:10:22;4.40;;;2.60;;
23747;SDS011;12054;53.662;10.126;2023-08-30T01:13:01;3.15;;;2.47;;
23747;SDS011;12054;53.662;10.126;2023-08-30T01:15:33;3.17;;;2.53;;
23747;SDS011;12054;53.662;10.126;2023-08-30T01:18:00;2.67;;;2.33;;
23747;SDS011;12054;53.662;10.126;2023-08-30T01:20:29;3.97;;;2.50;;
23747;SDS011;12054;53.662;10.126;2023-08-30T01:23:06;2.42;;;2.22;;
23747;SDS011;12054;53.662;10.126;2023-08-30T01:25:50;4.07;;;2.45;;
23747;SDS011;12054;53.662;10.126;2023-08-30T01:28:26;2.67;;;2.35;;
23747;SDS011;12054;53.662;10.126;2023-08-30T01:30:54;3.28;;;2.10;;
23747;SDS011;12054;53.662;10.126;2023-08-30T01:33:20;2.72;;;2.42;;
23747;SDS011;12054;53.662;10.126;2023-08-30T01:35:46;2.75;;;2.50;;
23747;SDS011;12054;53.662;10.126;2023-08-30T01:38:12;3.78;;;2.33;;
23747;SDS011;12054;53.662;10.126;2023-08-30T01:40:40;2.38;;;2.05;;
23747;SDS011;12054;53.662;10.126;2023-08-30T01:43:07;2.63;;;2.38;;
23747;SDS011;12054;53.662;10.126;2023-08-30T01:45:36;2.95;;;2.45;;
23747;SDS011;12054;53.662;10.126;2023-08-30T01:48:05;4.07;;;2.50;;
23747;SDS011;12054;53.662;10.126;2023-08-30T01:50:34;3.55;;;2.42;;
23747;SDS011;12054;53.662;10.126;2023-08-30T01:53:00;4.43;;;2.67;;
23747;SDS011;12054;53.662;10.126;2023-08-30T01:55:26;4.13;;;2.70;;
23747;SDS011;12054;53.662;10.126;2023-08-30T01:57:54;3.75;;;2.70;;
23747;SDS011;12054;53.662;10.126;2023-08-30T02:00:20;2.85;;;2.55;;
23747;SDS011;12054;53.662;10.126;2023-08-30T02:02:46;2.38;;;1.60;;
23747;SDS011;12054;53.662;10.126;2023-08-30T02:05:12;2.15;;;1.90;;
23747;SDS011;12054;53.662;10.126;2023-08-30T02:07:58;1.77;;;1.40;;
23747;SDS011;12054;53.662;10.126;2023-08-30T02:10:56;1.42;;;1.30;;
23747;SDS011;12054;53.662;10.126;2023-08-30T02:13:27;1.80;;;1.65;;
23747;SDS011;12054;53.662;10.126;2023-08-30T02:15:55;2.20;;;2.00;;
23747;SDS011;12054;53.662;10.126;2023-08-30T02:18:22;2.83;;;2.38;;
23747;SDS011;12054;53.662;10.126;2023-08-30T02:20:48;2.75;;;2.05;;
23747;SDS011;12054;53.662;10.126;2023-08-30T02:23:14;3.55;;;2.50;;
23747;SDS011;12054;53.662;10.126;2023-08-30T02:25:40;2.65;;;2.30;;
23747;SDS011;12054;53.662;10.126;2023-08-30T02:28:05;3.65;;;2.53;;
23747;SDS011;12054;53.662;10.126;2023-08-30T02:30:31;3.55;;;2.17;;
23747;SDS011;12054;53.662;10.126;2023-08-30T02:32:56;2.85;;;2.20;;
23747;SDS011;12054;53.662;10.126;2023-08-30T02:35:22;3.10;;;2.80;;
23747;SDS011;12054;53.662;10.126;2023-08-30T02:37:47;4.13;;;3.00;;
23747;SDS011;12054;53.662;10.126;2023-08-30T02:40:12;3.97;;;2.75;;
23747;SDS011;12054;53.662;10.126;2023-08-30T02:42:38;4.07;;;2.95;;
23747;SDS011;12054;53.662;10.126;2023-08-30T02:45:04;3.40;;;2.83;;
23747;SDS011;12054;53.662;10.126;2023-08-30T02:47:29;3.13;;;2.75;;
23747;SDS011;12054;53.662;10.126;2023-08-30T02:49:55;3.65;;;2.67;;
23747;SDS011;12054;53.662;10.126;2023-08-30T02:52:20;5.15;;;2.83;;
23747;SDS011;12054;53.662;10.126;2023-08-30T02:54:46;4.05;;;2.80;;
23747;SDS011;12054;53.662;10.126;2023-08-30T02:57:11;2.72;;;2.40;;
23747;SDS011;12054;53.662;10.126;2023-08-30T02:59:37;3.10;;;2.50;;
23747;SDS011;12054;53.662;10.126;2023-08-30T03:02:02;2.72;;;2.50;;
23747;SDS011;12054;53.662;10.126;2023-08-30T03:04:28;4.32;;;2.60;;
23747;SDS011;12054;53.662;10.126;2023-08-30T03:06:53;3.05;;;2.78;;
23747;SDS011;12054;53.662;10.126;2023-08-30T03:09:19;4.15;;;3.17;;
23747;SDS011;12054;53.662;10.126;2023-08-30T03:11:44;3.65;;;2.70;;
23747;SDS011;12054;53.662;10.126;2023-08-30T03:14:10;2.38;;;1.95;;
23747;SDS011;12054;53.662;10.126;2023-08-30T03:16:35;4.15;;;2.83;;
23747;SDS011;12054;53.662;10.126;2023-08-30T03:19:01;3.70;;;3.35;;
23747;SDS011;12054;53.662;10.126;2023-08-30T03:21:27;3.67;;;3.10;;
23747;SDS011;12054;53.662;10.126;2023-08-30T03:23:53;2.88;;;2.58;;
23747;SDS011;12054;53.662;10.126;2023-08-30T03:26:18;4.25;;;3.35;;
23747;SDS011;12054;53.662;10.126;2023-08-30T03:28:44;4.13;;;3.70;;
23747;SDS011;12054;53.662;10.126;2023-08-30T03:31:13;5.80;;;4.00;;
23747;SDS011;12054;53.662;10.126;2023-08-30T03:33:43;3.00;;;2.72;;
23747;SDS011;12054;53.662;10.126;2023-08-30T03:36:13;3.40;;;3.08;;
23747;SDS011;12054;53.662;10.126;2023-08-30T03:38:39;4.75;;;3.40;;
23747;SDS011;12054;53.662;10.126;2023-08-30T03:41:05;4.97;;;3.38;;
23747;SDS011;12054;53.662;10.126;2023-08-30T03:43:32;6.03;;;3.70;;
23747;SDS011;12054;53.662;10.126;2023-08-30T03:45:59;4.03;;;3.33;;
23747;SDS011;12054;53.662;10.126;2023-08-30T03:48:25;4.40;;;3.38;;
23747;SDS011;12054;53.662;10.126;2023-08-30T03:50:51;3.90;;;3.58;;
23747;SDS011;12054;53.662;10.126;2023-08-30T03:53:18;4.85;;;3.40;;
23747;SDS011;12054;53.662;10.126;2023-08-30T03:55:43;4.82;;;3.90;;
23747;SDS011;12054;53.662;10.126;2023-08-30T03:58:09;4.25;;;3.38;;
23747;SDS011;12054;53.662;10.126;2023-08-30T04:00:38;4.75;;;3.42;;
23747;SDS011;12054;53.662;10.126;2023-08-30T04:03:04;4.57;;;3.42;;
23747;SDS011;12054;53.662;10.126;2023-08-30T04:05:34;6.63;;;4.45;;
23747;SDS011;12054;53.662;10.126;2023-08-30T04:08:03;5.05;;;3.45;;
23747;SDS011;12054;53.662;10.126;2023-08-30T04:10:37;5.53;;;4.00;;
23747;SDS011;12054;53.662;10.126;2023-08-30T04:13:04;4.60;;;3.83;;
23747;SDS011;12054;53.662;10.126;2023-08-30T04:15:37;6.13;;;4.30;;
23747;SDS011;12054;53.662;10.126;2023-08-30T04:18:03;6.60;;;4.38;;
23747;SDS011;12054;53.662;10.126;2023-08-30T04:20:30;6.57;;;4.55;;
23747;SDS011;12054;53.662;10.126;2023-08-30T04:22:57;5.35;;;4.28;;
23747;SDS011;12054;53.662;10.126;2023-08-30T04:25:23;6.32;;;4.85;;
23747;SDS011;12054;53.662;10.126;2023-08-30T04:27:49;5.60;;;4.97;;
23747;SDS011;12054;53.662;10.126;2023-08-30T04:30:15;6.85;;;4.85;;
23747;SDS011;12054;53.662;10.126;2023-08-30T04:32:41;6.15;;;4.70;;
23747;SDS011;12054;53.662;10.126;2023-08-30T04:35:07;8.18;;;6.05;;
23747;SDS011;12054;53.662;10.126;2023-08-30T04:37:33;8.27;;;5.43;;
23747;SDS011;12054;53.662;10.126;2023-08-30T04:39:58;6.47;;;4.97;;
23747;SDS011;12054;53.662;10.126;2023-08-30T04:42:24;6.88;;;5.63;;
23747;SDS011;12054;53.662;10.126;2023-08-30T04:44:50;6.05;;;5.40;;
23747;SDS011;12054;53.662;10.126;2023-08-30T04:47:17;8.05;;;6.20;;
23747;SDS011;12054;53.662;10.126;2023-08-30T04:49:43;10.73;;;6.90;;
23747;SDS011;12054;53.662;10.126;2023-08-30T04:52:08;8.48;;;6.70;;
23747;SDS011;12054;53.662;10.126;2023-08-30T04:54:34;9.82;;;6.45;;
23747;SDS011;12054;53.662;10.126;2023-08-30T04:56:59;8.40;;;7.07;;
23747;SDS011;12054;53.662;10.126;2023-08-30T04:59:25;7.80;;;6.70;;
23747;SDS011;12054;53.662;10.126;2023-08-30T05:01:50;9.02;;;7.40;;
23747;SDS011;12054;53.662;10.126;2023-08-30T05:04:16;7.18;;;6.45;;
23747;SDS011;12054;53.662;10.126;2023-08-30T05:06:43;8.95;;;6.47;;
23747;SDS011;12054;53.662;10.126;2023-08-30T05:09:09;9.10;;;7.68;;
23747;SDS011;12054;53.662;10.126;2023-08-30T05:11:34;11.70;;;7.35;;
23747;SDS011;12054;53.662;10.126;2023-08-30T05:14:00;10.65;;;7.70;;
23747;SDS011;12054;53.662;10.126;2023-08-30T05:16:25;8.60;;;7.50;;
23747;SDS011;12054;53.662;10.126;2023-08-30T05:18:51;10.50;;;7.85;;
23747;SDS011;12054;53.662;10.126;2023-08-30T05:21:16;9.60;;;7.18;;
23747;SDS011;12054;53.662;10.126;2023-08-30T05:23:42;10.50;;;8.32;;
23747;SDS011;12054;53.662;10.126;2023-08-30T05:26:08;9.95;;;7.68;;
23747;SDS011;12054;53.662;10.126;2023-08-30T05:28:35;9.85;;;8.40;;
23747;SDS011;12054;53.662;10.126;2023-08-30T05:31:02;10.45;;;8.10;;
23747;SDS011;12054;53.662;10.126;2023-08-30T05:33:28;11.82;;;8.65;;
23747;SDS011;12054;53.662;10.126;2023-08-30T05:35:54;9.98;;;8.25;;
23747;SDS011;12054;53.662;10.126;2023-08-30T05:38:20;10.32;;;8.45;;
23747;SDS011;12054;53.662;10.126;2023-08-30T05:40:45;10.90;;;9.05;;
23747;SDS011;12054;53.662;10.126;2023-08-30T05:43:11;12.98;;;8.57;;
23747;SDS011;12054;53.662;10.126;2023-08-30T05:45:36;13.75;;;8.82;;
23747;SDS011;12054;53.662;10.126;2023-08-30T05:48:02;10.38;;;8.70;;
23747;SDS011;12054;53.662;10.126;2023-08-30T05:50:28;12.40;;;8.43;;
23747;SDS011;12054;53.662;10.126;2023-08-30T05:52:53;11.77;;;8.30;;
23747;SDS011;12054;53.662;10.126;2023-08-30T05:55:19;11.23;;;8.57;;
23747;SDS011;12054;53.662;10.126;2023-08-30T05:57:45;12.50;;;8.57;;
23747;SDS011;12054;53.662;10.126;2023-08-30T06:00:10;13.07;;;8.95;;
23747;SDS011;12054;53.662;10.126;2023-08-30T06:02:38;12.73;;;8.95;;
23747;SDS011;12054;53.662;10.126;2023-08-30T06:05:04;12.35;;;9.25;;
23747;SDS011;12054;53.662;10.126;2023-08-30T06:07:29;10.65;;;8.82;;
23747;SDS011;12054;53.662;10.126;2023-08-30T06:09:55;12.60;;;9.43;;
23747;SDS011;12054;53.662;10.126;2023-08-30T06:12:20;12.30;;;8.57;;
23747;SDS011;12054;53.662;10.126;2023-08-30T06:14:46;14.23;;;9.88;;
23747;SDS011;12054;53.662;10.126;2023-08-30T06:17:16;13.13;;;9.18;;
23747;SDS011;12054;53.662;10.126;2023-08-30T06:19:42;11.63;;;9.10;;
23747;SDS011;12054;53.662;10.126;2023-08-30T06:22:08;10.45;;;8.65;;
23747;SDS011;12054;53.662;10.126;2023-08-30T06:24:35;12.25;;;8.75;;
23747;SDS011;12054;53.662;10.126;2023-08-30T06:27:00;12.80;;;9.73;;
23747;SDS011;12054;53.662;10.126;2023-08-30T06:29:26;12.27;;;9.05;;
23747;SDS011;12054;53.662;10.126;2023-08-30T06:31:51;12.82;;;9.73;;
23747;SDS011;12054;53.662;10.126;2023-08-30T06:34:17;10.90;;;9.10;;
23747;SDS011;12054;53.662;10.126;2023-08-30T06:36:42;11.93;;;8.30;;
23747;SDS011;12054;53.662;10.126;2023-08-30T06:39:08;14.07;;;8.98;;
23747;SDS011;12054;53.662;10.126;2023-08-30T06:41:33;10.95;;;9.20;;
23747;SDS011;12054;53.662;10.126;2023-08-30T06:43:58;10.05;;;8.52;;
23747;SDS011;12054;53.662;10.126;2023-08-30T06:46:24;11.82;;;8.55;;
23747;SDS011;12054;53.662;10.126;2023-08-30T06:48:50;10.45;;;7.65;;
23747;SDS011;12054;53.662;10.126;2023-08-30T06:51:15;11.32;;;8.52;;
23747;SDS011;12054;53.662;10.126;2023-08-30T06:53:41;11.02;;;7.28;;
23747;SDS011;12054;53.662;10.126;2023-08-30T06:56:06;10.05;;;8.15;;
23747;SDS011;12054;53.662;10.126;2023-08-30T06:58:31;8.77;;;7.18;;
23747;SDS011;12054;53.662;10.126;2023-08-30T07:00:57;10.70;;;7.60;;
23747;SDS011;12054;53.662;10.126;2023-08-30T07:03:23;8.88;;;7.55;;
23747;SDS011;12054;53.662;10.126;2023-08-30T07:05:50;8.10;;;6.57;;
23747;SDS011;12054;53.662;10.126;2023-08-30T07:08:16;7.72;;;6.78;;
23747;SDS011;12054;53.662;10.126;2023-08-30T07:10:42;10.25;;;7.15;;
23747;SDS011;12054;53.662;10.126;2023-08-30T07:13:07;10.88;;;7.60;;
23747;SDS011;12054;53.662;10.126;2023-08-30T07:15:36;9.25;;;7.18;;
23747;SDS011;12054;53.662;10.126;2023-08-30T07:18:03;11.02;;;6.68;;
23747;SDS011;12054;53.662;10.126;2023-08-30T07:20:29;10.85;;;6.82;;
23747;SDS011;12054;53.662;10.126;2023-08-30T07:22:54;8.20;;;6.35;;
23747;SDS011;12054;53.662;10.126;2023-08-30T07:25:20;10.70;;;7.25;;
23747;SDS011;12054;53.662;10.126;2023-08-30T07:27:45;11.30;;;6.90;;
23747;SDS011;12054;53.662;10.126;2023-08-30T07:30:11;9.85;;;6.90;;
23747;SDS011;12054;53.662;10.126;2023-08-30T07:32:37;10.80;;;6.65;;
23747;SDS011;12054;53.662;10.126;2023-08-30T07:35:03;8.82;;;7.22;;
23747;SDS011;12054;53.662;10.126;2023-08-30T07:37:29;9.90;;;6.05;;
23747;SDS011;12054;53.662;10.126;2023-08-30T07:39:54;10.48;;;6.40;;
23747;SDS011;12054;53.662;10.126;2023-08-30T07:42:20;7.88;;;6.72;;
23747;SDS011;12054;53.662;10.126;2023-08-30T07:44:45;7.60;;;6.15;;
23747;SDS011;12054;53.662;10.126;2023-08-30T07:47:11;7.50;;;6.22;;
23747;SDS011;12054;53.662;10.126;2023-08-30T07:49:36;10.35;;;6.50;;
23747;SDS011;12054;53.662;10.126;2023-08-30T07:52:02;10.10;;;6.00;;
23747;SDS011;12054;53.662;10.126;2023-08-30T07:54:28;8.43;;;5.90;;
23747;SDS011;12054;53.662;10.126;2023-08-30T07:56:54;6.35;;;5.45;;
23747;SDS011;12054;53.662;10.126;2023-08-30T07:59:20;9.77;;;5.90;;
23747;SDS011;12054;53.662;10.126;2023-08-30T08:01:46;9.27;;;6.65;;
23747;SDS011;12054;53.662;10.126;2023-08-30T08:04:11;7.63;;;6.07;;
23747;SDS011;12054;53.662;10.126;2023-08-30T08:06:36;10.18;;;6.28;;
23747;SDS011;12054;53.662;10.126;2023-08-30T08:09:02;11.25;;;6.32;;
23747;SDS011;12054;53.662;10.126;2023-08-30T08:11:28;8.18;;;6.00;;
23747;SDS011;12054;53.662;10.126;2023-08-30T08:13:54;8.38;;;6.35;;
23747;SDS011;12054;53.662;10.126;2023-08-30T08:16:19;8.35;;;6.47;;
23747;SDS011;12054;53.662;10.126;2023-08-30T08:18:45;8.38;;;6.28;;
23747;SDS011;12054;53.662;10.126;2023-08-30T08:21:10;10.40;;;6.07;;
23747;SDS011;12054;53.662;10.126;2023-08-30T08:23:36;10.95;;;6.10;;
23747;SDS011;12054;53.662;10.126;2023-08-30T08:26:01;8.95;;;6.43;;
23747;SDS011;12054;53.662;10.126;2023-08-30T08:28:31;7.18;;;6.15;;
23747;SDS011;12054;53.662;10.126;2023-08-30T08:30:57;8.13;;;5.50;;
23747;SDS011;12054;53.662;10.126;2023-08-30T08:33:22;7.57;;;6.78;;
23747;SDS011;12054;53.662;10.126;2023-08-30T08:35:49;10.48;;;6.38;;
23747;SDS011;12054;53.662;10.126;2023-08-30T08:38:15;6.75;;;6.05;;
23747;SDS011;12054;53.662;10.126;2023-08-30T08:40:40;8.57;;;6.75;;
23747;SDS011;12054;53.662;10.126;2023-08-30T08:43:10;7.78;;;6.55;;
23747;SDS011;12054;53.662;10.126;2023-08-30T08:45:38;7.75;;;6.95;;
23747;SDS011;12054;53.662;10.126;2023-08-30T08:48:04;10.27;;;6.53;;
23747;SDS011;12054;53.662;10.126;2023-08-30T08:50:34;9.05;;;6.72;;
23747;SDS011;12054;53.662;10.126;2023-08-30T08:53:00;9.38;;;5.85;;
23747;SDS011;12054;53.662;10.126;2023-08-30T08:55:27;7.70;;;6.20;;
23747;SDS011;12054;53.662;10.126;2023-08-30T08:57:55;7.43;;;6.63;;
23747;SDS011;12054;53.662;10.126;2023-08-30T09:00:22;9.63;;;7.60;;
23747;SDS011;12054;53.662;10.126;2023-08-30T09:02:48;10.13;;;7.45;;
23747;SDS011;12054;53.662;10.126;2023-08-30T09:05:16;11.52;;;7.15;;
23747;SDS011;12054;53.662;10.126;2023-08-30T09:07:44;9.55;;;7.28;;
23747;SDS011;12054;53.662;10.126;2023-08-30T09:10:10;8.70;;;6.07;;
23747;SDS011;12054;53.662;10.126;2023-08-30T09:12:36;7.47;;;6.38;;
23747;SDS011;12054;53.662;10.126;2023-08-30T09:15:01;9.63;;;6.95;;
23747;SDS011;12054;53.662;10.126;2023-08-30T09:17:38;10.10;;;6.00;;
23747;SDS011;12054;53.662;10.126;2023-08-30T09:20:10;10.13;;;6.45;;
23747;SDS011;12054;53.662;10.126;2023-08-30T09:22:38;11.75;;;6.60;;
23747;SDS011;12054;53.662;10.126;2023-08-30T09:25:11;8.32;;;6.63;;
23747;SDS011;12054;53.662;10.126;2023-08-30T09:27:47;10.57;;;7.20;;
23747;SDS011;12054;53.662;10.126;2023-08-30T09:30:13;10.50;;;7.40;;
23747;SDS011;12054;53.662;10.126;2023-08-30T09:32:40;9.25;;;6.38;;
23747;SDS011;12054;53.662;10.126;2023-08-30T09:35:07;9.48;;;6.00;;
23747;SDS011;12054;53.662;10.126;2023-08-30T09:37:33;9.57;;;6.50;;
23747;SDS011;12054;53.662;10.126;2023-08-30T09:39:59;8.10;;;5.70;;
23747;SDS011;12054;53.662;10.126;2023-08-30T09:42:24;7.85;;;5.57;;
23747;SDS011;12054;53.662;10.126;2023-08-30T09:44:50;8.10;;;5.53;;
23747;SDS011;12054;53.662;10.126;2023-08-30T09:47:15;10.77;;;5.40;;
23747;SDS011;12054;53.662;10.126;2023-08-30T09:49:45;10.15;;;4.93;;
23747;SDS011;12054;53.662;10.126;2023-08-30T09:52:12;8.20;;;4.80;;
23747;SDS011;12054;53.662;10.126;2023-08-30T09:54:40;6.22;;;4.20;;
23747;SDS011;12054;53.662;10.126;2023-08-30T09:57:08;5.65;;;4.43;;
23747;SDS011;12054;53.662;10.126;2023-08-30T09:59:34;6.28;;;4.97;;
23747;SDS011;12054;53.662;10.126;2023-08-30T10:02:01;6.95;;;4.95;;
23747;SDS011;12054;53.662;10.126;2023-08-30T10:04:27;6.15;;;3.67;;
23747;SDS011;12054;53.662;10.126;2023-08-30T10:06:53;6.30;;;3.90;;
23747;SDS011;12054;53.662;10.126;2023-08-30T10:09:22;7.75;;;4.13;;
23747;SDS011;12054;53.662;10.126;2023-08-30T10:11:48;7.90;;;5.60;;
23747;SDS011;12054;53.662;10.126;2023-08-30T10:14:15;7.28;;;5.22;;
23747;SDS011;12054;53.662;10.126;2023-08-30T10:19:15;6.78;;;4.45;;
23747;SDS011;12054;53.662;10.126;2023-08-30T10:21:53;7.18;;;4.80;;
23747;SDS011;12054;53.662;10.126;2023-08-30T10:24:22;8.75;;;4.05;;
23747;SDS011;12054;53.662;10.126;2023-08-30T10:26:49;5.13;;;3.80;;
23747;SDS011;12054;53.662;10.126;2023-08-30T10:29:15;4.18;;;3.78;;
23747;SDS011;12054;53.662;10.126;2023-08-30T10:31:43;6.25;;;3.72;;
23747;SDS011;12054;53.662;10.126;2023-08-30T10:34:16;5.63;;;3.88;;
23747;SDS011;12054;53.662;10.126;2023-08-30T10:36:42;3.95;;;3.45;;
23747;SDS011;12054;53.662;10.126;2023-08-30T10:39:12;6.72;;;4.53;;
23747;SDS011;12054;53.662;10.126;2023-08-30T10:41:54;6.75;;;4.45;;
23747;SDS011;12054;53.662;10.126;2023-08-30T10:44:21;4.70;;;3.83;;
23747;SDS011;12054;53.662;10.126;2023-08-30T10:46:51;5.35;;;3.90;;
23747;SDS011;12054;53.662;10.126;2023-08-30T10:49:18;4.85;;;3.50;;
23747;SDS011;12054;53.662;10.126;2023-08-30T10:51:43;6.95;;;3.83;;
23747;SDS011;12054;53.662;10.126;2023-08-30T10:54:10;4.82;;;3.53;;
23747;SDS011;12054;53.662;10.126;2023-08-30T10:56:45;5.07;;;3.67;;
23747;SDS011;12054;53.662;10.126;2023-08-30T10:59:15;3.75;;;3.30;;
23747;SDS011;12054;53.662;10.126;2023-08-30T11:01:48;4.18;;;2.78;;
23747;SDS011;12054;53.662;10.126;2023-08-30T11:04:16;4.03;;;2.70;;
23747;SDS011;12054;53.662;10.126;2023-08-30T11:06:45;4.18;;;3.22;;
23747;SDS011;12054;53.662;10.126;2023-08-30T11:09:12;6.15;;;3.10;;
23747;SDS011;12054;53.662;10.126;2023-08-30T11:11:39;6.20;;;3.10;;
23747;SDS011;12054;53.662;10.126;2023-08-30T11:14:06;6.03;;;3.45;;
23747;SDS011;12054;53.662;10.126;2023-08-30T11:16:33;4.75;;;3.30;;
23747;SDS011;12054;53.662;10.126;2023-08-30T11:19:00;3.80;;;3.20;;
23747;SDS011;12054;53.662;10.126;2023-08-30T11:21:27;4.20;;;3.80;;
23747;SDS011;12054;53.662;10.126;2023-08-30T11:23:54;6.35;;;3.42;;
23747;SDS011;12054;53.662;10.126;2023-08-30T11:26:20;6.28;;;4.20;;
23747;SDS011;12054;53.662;10.126;2023-08-30T11:28:45;5.28;;;4.07;;
23747;SDS011;12054;53.662;10.126;2023-08-30T11:31:20;5.32;;;3.83;;
23747;SDS011;12054;53.662;10.126;2023-08-30T11:33:53;6.30;;;4.28;;
23747;SDS011;12054;53.662;10.126;2023-08-30T11:36:20;5.10;;;3.83;;
23747;SDS011;12054;53.662;10.126;2023-08-30T11:38:56;6.40;;;3.90;;
23747;SDS011;12054;53.662;10.126;2023-08-30T11:41:25;6.95;;;4.03;;
23747;SDS011;12054;53.662;10.126;2023-08-30T11:43:51;4.97;;;3.55;;
23747;SDS011;12054;53.662;10.126;2023-08-30T11:46:18;6.60;;;4.10;;
23747;SDS011;12054;53.662;10.126;2023-08-30T11:48:45;6.65;;;3.72;;
23747;SDS011;12054;53.662;10.126;2023-08-30T11:51:12;9.68;;;3.42;;
23747;SDS011;12054;53.662;10.126;2023-08-30T11:53:38;5.55;;;3.70;;
23747;SDS011;12054;53.662;10.126;2023-08-30T11:56:05;5.32;;;3.75;;
23747;SDS011;12054;53.662;10.126;2023-08-30T11:58:34;5.35;;;3.70;;
23747;SDS011;12054;53.662;10.126;2023-08-30T12:01:01;5.57;;;3.90;;
23747;SDS011;12054;53.662;10.126;2023-08-30T12:03:27;4.90;;;3.45;;
23747;SDS011;12054;53.662;10.126;2023-08-30T12:05:54;5.40;;;3.90;;
23747;SDS011;12054;53.662;10.126;2023-08-30T12:08:24;5.45;;;3.65;;
23747;SDS011;12054;53.662;10.126;2023-08-30T12:10:53;5.05;;;3.45;;
23747;SDS011;12054;53.662;10.126;2023-08-30T12:13:29;7.10;;;4.55;;
23747;SDS011;12054;53.662;10.126;2023-08-30T12:15:57;4.60;;;3.60;;
23747;SDS011;12054;53.662;10.126;2023-08-30T12:18:24;6.47;;;3.85;;
23747;SDS011;12054;53.662;10.126;2023-08-30T12:23:20;5.47;;;4.30;;
23747;SDS011;12054;53.662;10.126;2023-08-30T12:25:56;5.13;;;3.58;;
23747;SDS011;12054;53.662;10.126;2023-08-30T12:28:22;4.13;;;3.42;;
23747;SDS011;12054;53.662;10.126;2023-08-30T12:30:48;5.30;;;3.45;;
23747;SDS011;12054;53.662;10.126;2023-08-30T12:33:15;5.97;;;3.15;;
23747;SDS011;12054;53.662;10.126;2023-08-30T12:35:41;4.07;;;3.45;;
23747;SDS011;12054;53.662;10.126;2023-08-30T12:38:06;6.07;;;3.90;;
23747;SDS011;12054;53.662;10.126;2023-08-30T12:40:32;7.53;;;3.80;;
23747;SDS011;12054;53.662;10.126;2023-08-30T12:42:57;4.00;;;3.40;;
23747;SDS011;12054;53.662;10.126;2023-08-30T12:45:23;4.95;;;3.50;;
23747;SDS011;12054;53.662;10.126;2023-08-30T12:47:48;8.25;;;3.70;;
23747;SDS011;12054;53.662;10.126;2023-08-30T12:50:14;7.88;;;4.00;;
23747;SDS011;12054;53.662;10.126;2023-08-30T12:52:39;5.47;;;3.70;;
23747;SDS011;12054;53.662;10.126;2023-08-30T12:55:05;5.57;;;4.45;;
23747;SDS011;12054;53.662;10.126;2023-08-30T12:57:31;5.75;;;4.15;;
23747;SDS011;12054;53.662;10.126;2023-08-30T12:59:56;5.65;;;3.80;;
23747;SDS011;12054;53.662;10.126;2023-08-30T13:02:22;4.18;;;3.20;;
23747;SDS011;12054;53.662;10.126;2023-08-30T13:04:47;4.38;;;3.33;;
23747;SDS011;12054;53.662;10.126;2023-08-30T13:07:13;4.45;;;3.95;;
23747;SDS011;12054;53.662;10.126;2023-08-30T13:09:38;5.55;;;3.88;;
23747;SDS011;12054;53.662;10.126;2023-08-30T13:12:04;5.53;;;3.88;;
23747;SDS011;12054;53.662;10.126;2023-08-30T13:14:29;4.38;;;3.90;;
23747;SDS011;12054;53.662;10.126;2023-08-30T13:16:55;5.93;;;3.83;;
23747;SDS011;12054;53.662;10.126;2023-08-30T13:19:20;4.28;;;3.58;;
23747;SDS011;12054;53.662;10.126;2023-08-30T13:21:46;6.10;;;3.65;;
23747;SDS011;12054;53.662;10.126;2023-08-30T13:24:11;5.78;;;3.90;;
23747;SDS011;12054;53.662;10.126;2023-08-30T13:26:37;6.60;;;3.85;;
23747;SDS011;12054;53.662;10.126;2023-08-30T13:29:02;6.78;;;4.05;;
23747;SDS011;12054;53.662;10.126;2023-08-30T13:31:28;6.10;;;4.28;;
23747;SDS011;12054;53.662;10.126;2023-08-30T13:33:53;5.25;;;4.15;;
23747;SDS011;12054;53.662;10.126;2023-08-30T13:36:21;4.95;;;3.45;;
23747;SDS011;12054;53.662;10.126;2023-08-30T13:38:46;5.55;;;3.95;;
23747;SDS011;12054;53.662;10.126;2023-08-30T13:41:12;6.13;;;4.97;;
23747;SDS011;12054;53.662;10.126;2023-08-30T13:43:37;5.63;;;3.97;;
23747;SDS011;12054;53.662;10.126;2023-08-30T13:46:04;6.43;;;3.85;;
23747;SDS011;12054;53.662;10.126;2023-08-30T13:48:30;6.63;;;4.32;;
23747;SDS011;12054;53.662;10.126;2023-08-30T13:50:55;5.07;;;3.70;;
23747;SDS011;12054;53.662;10.126;2023-08-30T13:53:21;4.25;;;3.45;;
23747;SDS011;12054;53.662;10.126;2023-08-30T13:55:46;4.47;;;3.65;;
23747;SDS011;12054;53.662;10.126;2023-08-30T13:58:13;4.88;;;4.28;;
23747;SDS011;12054;53.662;10.126;2023-08-30T14:00:39;6.50;;;4.10;;
23747;SDS011;12054;53.662;10.126;2023-08-30T14:03:05;5.53;;;3.95;;
23747;SDS011;12054;53.662;10.126;2023-08-30T14:05:31;7.07;;;3.97;;
23747;SDS011;12054;53.662;10.126;2023-08-30T14:07:56;5.30;;;3.80;;
23747;SDS011;12054;53.662;10.126;2023-08-30T14:10:22;5.25;;;4.45;;
23747;SDS011;12054;53.662;10.126;2023-08-30T14:12:47;5.00;;;3.67;;
23747;SDS011;12054;53.662;10.126;2023-08-30T14:15:13;5.85;;;3.78;;
23747;SDS011;12054;53.662;10.126;2023-08-30T14:17:38;6.03;;;3.83;;
23747;SDS011;12054;53.662;10.126;2023-08-30T14:20:04;4.18;;;3.53;;
23747;SDS011;12054;53.662;10.126;2023-08-30T14:22:31;7.18;;;3.70;;
23747;SDS011;12054;53.662;10.126;2023-08-30T14:24:57;4.95;;;3.50;;
23747;SDS011;12054;53.662;10.126;2023-08-30T14:27:23;5.53;;;3.58;;
23747;SDS011;12054;53.662;10.126;2023-08-30T14:29:48;5.53;;;4.30;;
23747;SDS011;12054;53.662;10.126;2023-08-30T14:32:14;5.45;;;4.13;;
23747;SDS011;12054;53.662;10.126;2023-08-30T14:34:40;3.88;;;3.40;;